Updated23/10/2020 07:15 
 

GeoURL
free counters
Scottish Weather Network UK Weather Network Cumulus Top Weather Sites

Peebles Weather - Nearby METAR Reports

Raw Data, Raw Data Expanded

Ignore low humidity and Dew Point values. Something wrong with the sensor.
Daytime temperatures are in direct sunlight so may be higher than official air temperature values.
As with any other website, we log your IP address and browser type in the server logs for diagnostic reasons. Cookies are used to record visit time and gauges preferences. No personal information is stored or processed.

All times are in local time (GMT, or BST in summer) unless specified.

2020/10/23 05:50 EGPH 230550Z 20007KT 9999 -RA NSC 08/05 Q0999
7.7°C 0.0 mm 0.3 mm 1.8 mm 1.3 mph 3.8 mph 995.7 hPa 50% X-Ray Solar Flare Level
Planetary K-Index
Planetary K-Index History
Station Warn Rain Snow Flood Wind Ltng Heat Cold Glob Moon Temp Rain 1h Rain Fri Rain 24h Wind 10m Gust Pressure Hum Proton Levels

m Waxing Crescent Cold F1-NE F: A: Kp:0 SSN:0

METAR Reports

 

EGPH - Edinburgh Airpor, United Kingdom
Distance from station: NNW 22mi, 36km
Updated: 23/10/2020 06:50
Light rain, Partly cloudy
Light rain, Partly cloudy
 Wind from SSW
Wind: SSW 8 mph , 13 km/h
Temperature: 8°C
Wind Chill: 6°C
Dew Point: 5°C
Humidity: 82%
Barometer: 999 hPa
Summary: Light rain
Clouds: Partly cloudy
Visibility: 6 miles , 10 km
2020/10/23 05:50 EGPH 230550Z 20007KT 9999 -RA NSC 08/05 Q0999
EGOM - Spadeadam, United Kingdom
Distance from station: SSE 49mi, 79km
Updated: 23/10/2020 06:50
Light rain, Mostly cloudy
Light rain, Mostly cloudy
 Wind from SSW
Wind: SSW 10 mph , 17 km/h
Temperature: 6°C
Wind Chill: 3°C
Dew Point: 4°C
Humidity: 87%
Barometer: 1001 hPa
Summary: Light rain
Clouds: Mostly cloudy
Visibility: 6 miles , 10 km
Cloud details: Mostly cloudy 823 m
Mostly cloudy 2134 m
2020/10/23 05:50 EGOM 230550Z AUTO 20009KT 9999 -RA BKN027/// BKN070/// 06/04 Q1001
 
EGNC - Carlisle, United Kingdom
Distance from station: SSE 51mi, 82km
Updated: 27/03/2020 14:50
NOT Current
Mostly cloudy
Mostly cloudy
 Wind from ENE
Wind: ENE 9 mph , 15 km/h
Temperature: 11°C
Dew Point: 4°C
Humidity: 62%
Barometer: 1029 hPa
Clouds: Mostly cloudy
Visibility: 6 miles , 9 km
Cloud details: Few Clouds 1067 m
Mostly cloudy 1372 m
2020/03/27 14:50 EGNC 271450Z 07008KT 050V110 9000 FEW035 BKN045 11/04 Q1029
EGPF - Glasgow Airport, United Kingdom
Distance from station: WNW 51mi, 82km
Updated: 23/10/2020 06:50
Light rain, Thunderstorm
Light rain, Thunderstorm
 Wind from S
Wind: S 14 mph , 22 km/h
Temperature: 8°C
Wind Chill: 4°C
Dew Point: 6°C
Humidity: 87%
Barometer: 999 hPa
Summary: Light rain
Clouds: Thunderstorm
Visibility: 6 miles , 10 km
2020/10/23 05:50 EGPF 230550Z AUTO 18012KT 9999 -RA //////TCU 08/06 Q0999
 
EGQL - Leuchars Raf, United Kingdom
Distance from station: NNE 53mi, 85km
Updated: 23/10/2020 06:50
Mostly cloudy
Mostly cloudy
 Wind from S
Wind: S 10 mph , 17 km/h
Temperature: 8°C
Wind Chill: 5°C
Dew Point: 6°C
Humidity: 87%
Barometer: 999 hPa
Clouds: Mostly cloudy
Visibility: 6 miles , 10 km
Cloud details: Partly cloudy 1372 m
Mostly cloudy 2134 m
2020/10/23 05:50 EGQL 230550Z 18009KT 9999 SCT045 BKN070 08/06 Q0999 BLU
EGPK - Prestwick(Civ/Na, United Kingdom
Distance from station: W 55mi, 89km
Updated: 23/10/2020 06:50
Light rain, Mostly cloudy
Light rain, Mostly cloudy
 Wind from S
Wind: S 8 mph , 13 km/h
Temperature: 8°C
Wind Chill: 6°C
Dew Point: 7°C
Humidity: 93%
Barometer: 999 hPa
Summary: Light rain
Clouds: Mostly cloudy
Visibility: 6 miles , 10 km
Cloud details: Few Clouds 914 m
Mostly cloudy 1341 m
2020/10/23 05:50 EGPK 230550Z 17007KT 9999 -RA FEW030 BKN044 08/07 Q0999
 
EGPN - Dundee/Riverside, United Kingdom
Distance from station: N 56mi, 90km
Updated: 23/10/2020 06:50
Mostly cloudy
Mostly cloudy
 Wind from S
Wind: S 7 mph , 11 km/h
Temperature: 9°C
Wind Chill: 7°C
Dew Point: 6°C
Humidity: 82%
Barometer: 1000 hPa
Clouds: Mostly cloudy
Visibility: 6 miles , 10 km
Cloud details: Mostly cloudy 1067 m
2020/10/23 05:50 EGPN 230550Z 17006KT 9999 BKN035 09/06 Q1000
EGNT - Newcastle, United Kingdom
Distance from station: SE 72mi, 116km
Updated: 23/10/2020 06:50
Partly cloudy
Partly cloudy
 Wind from S
Wind: S 6 mph , 9 km/h
Temperature: 7°C
Wind Chill: 6°C
Dew Point: 3°C
Humidity: 76%
Barometer: 1003 hPa
Clouds: Partly cloudy
Visibility: 6 miles , 10 km
Cloud details: Partly cloudy 1219 m
2020/10/23 05:50 EGNT 230550Z 17005KT 140V210 9999 SCT040 07/03 Q1003
 
EGNV - Tees-Side, United Kingdom
Distance from station: SE 104mi, 168km
Updated: 23/10/2020 06:50
Partly cloudy
Partly cloudy
 Wind from S
Wind: S 13 mph , 20 km/h
Temperature: 6°C
Wind Chill: 2°C
Dew Point: 2°C
Humidity: 76%
Barometer: 1004 hPa
Clouds: Partly cloudy
Visibility: 6 miles , 10 km
Cloud details: Few Clouds 1067 m
Partly cloudy 1219 m
2020/10/23 05:50 EGNV 230550Z 17011KT 9999 FEW035 SCT040 06/02 Q1004
EGPD - Aberdeen/Dyce, United Kingdom
Distance from station: NNE 114mi, 183km
Updated: 23/10/2020 06:50
Light rain, Mostly cloudy
Light rain, Mostly cloudy
 Wind from S
Wind: S 13 mph , 20 km/h
Temperature: 7°C
Wind Chill: 4°C
Dew Point: 5°C
Humidity: 87%
Barometer: 999 hPa
Summary: Light rain
Clouds: Mostly cloudy
Visibility: 6 miles , 10 km
Cloud details: Partly cloudy 1280 m
Mostly cloudy 1494 m
2020/10/23 05:50 EGPD 230550Z AUTO 17011KT 9999 -RA SCT042 BKN049 07/05 Q0999 TEMPO RA
 
EGNS - Isle Of Man/Rona, United Kingdom
Distance from station: SSW 122mi, 197km
Updated: 23/10/2020 06:50
Rain, Mostly cloudy
Rain, Mostly cloudy
 Wind from SSW
Wind: SSW 23 mph , 37 km/h
Temperature: 11°C
Dew Point: 8°C
Humidity: 82%
Barometer: 1001 hPa
Summary: Rain
Clouds: Mostly cloudy
Visibility: 4 miles , 6 km
Cloud details: Few Clouds 549 m
Partly cloudy 671 m
Mostly cloudy 1067 m
2020/10/23 05:50 EGNS 230550Z 20020KT 170V240 6000 RA FEW018 SCT022 BKN035 11/08 Q1001 TEMPO 4000 +RA
EGAC - Belfast Harbour, United Kingdom
Distance from station: WSW 128mi, 206km
Updated: 23/10/2020 06:50
Light rain, Drizzle, Overcast
Light rain, Drizzle, Overcast
 Wind from SW
Wind: SW 10 mph , 17 km/h
Temperature: 8°C
Wind Chill: 5°C
Dew Point: 7°C
Humidity: 93%
Barometer: 999 hPa
Summary: Light rain, Drizzle
Clouds: Overcast
Visibility: 3 miles , 5 km
Cloud details: Mostly cloudy 305 m
Overcast 610 m
2020/10/23 05:50 EGAC 230550Z AUTO 22009KT 4800 -RADZ BKN010/// OVC020/// 08/07 Q0999
 
EGPE - Inverness/Dalcro, United Kingdom
Distance from station: NNW 134mi, 215km
Updated: 23/10/2020 06:50
Partly cloudy
Partly cloudy
 Wind from calm
Wind: Calm
Temperature: 7°C
Dew Point: 5°C
Humidity: 87%
Barometer: 997 hPa
Clouds: Partly cloudy
Visibility: 6 miles , 10 km
Cloud details: Few Clouds 457 m
Partly cloudy 1250 m
2020/10/23 05:50 EGPE 230550Z 00000KT 9999 FEW015 SCT041 07/05 Q0997
XHTML 1.1 | CSS